Flight Track Log - Related Links

Times and Time Zones

All times are in EDT time to prevent confusion due to time zone crossing. See the WIG7413 flight status page for this flight to view local times or setup timezone preferences in your user account.

Time Position Orientation Groundspeed Altitude Reporting Facility
EDT Latitude Longitude Course Direction KTS MPH feet Rate Location/Type
Tue 10:14:31 PM 42.7403 -73.8083 179° South 82 94 1,000  Level Boston Center
Tue 10:14:53 PM 42.7319 -73.8081 179° South 82 94 1,400 1,059 Climbing Boston Center
Tue 10:15:56 PM 42.7067 -73.8217 202° Southwest 87 100 2,500 1,065 Climbing Boston Center
Tue 10:16:57 PM 42.6878 -73.8383 213° Southwest 94 108 3,600 1,091 Climbing Boston Center
Tue 10:17:57 PM 42.6625 -73.8575 209° Southwest 104 120 4,700 992 Climbing Boston Center
Tue 10:19:04 PM 42.6267 -73.8847 209° Southwest 129 148 5,700 905 Climbing Boston Center
Tue 10:20:03 PM 42.5953 -73.9094 210° Southwest 133 153 6,600 850 Climbing Boston Center
Tue 10:21:04 PM 42.5614 -73.9342 208° Southwest 133 153 7,400 683 Climbing Boston Center
Tue 10:22:06 PM 42.5278 -73.9586 208° Southwest 147 169 8,000 271 Climbing Boston Center
Tue 10:23:17 PM 42.4836 -73.9914 209° Southwest 180 207 8,000 -47 Level Boston Center
Tue 10:24:15 PM 42.4414 -74.0239 210° Southwest 180 207 7,900 -50 Descending Boston Center
Tue 10:25:17 PM 42.4036 -74.0539 210° Southwest 173 199 7,900  Level Boston Center
Tue 10:26:15 PM 42.3594 -74.0839 207° Southwest 168 193 7,900 51 Level Boston Center
Tue 10:27:15 PM 42.3214 -74.1164 212° Southwest 168 193 8,000 49 Climbing Boston Center
Tue 10:28:17 PM 42.2814 -74.1461 209° Southwest 168 193 8,000  Level Boston Center
Tue 10:29:15 PM 42.2414 -74.1703 204° Southwest 162 186 8,000 -50 Level Boston Center
Tue 10:30:16 PM 42.1992 -74.1917 201° Southwest 157 181 7,900  Descending Boston Center
Tue 10:31:16 PM 42.1553 -74.2156 202° Southwest 157 181 8,000  Climbing Boston Center
Tue 10:32:16 PM 42.1153 -74.2342 199° South 157 181 7,900 -50 Descending Boston Center
Tue 10:33:16 PM 42.0733 -74.2581 203° Southwest 162 186 7,900 100 Level Boston Center
Tue 10:34:16 PM 42.0311 -74.2792 200° South 162 186 8,100 50 Climbing Boston Center
Tue 10:35:16 PM 41.9850 -74.3031 201° Southwest 172 198 8,000  Descending Boston Center
Tue 10:36:15 PM 41.9428 -74.3242 200° South 172 198 8,100 -150 Climbing Boston Center
Tue 10:37:16 PM 41.8967 -74.3478 201° Southwest 172 198 7,700 -492 Descending Boston Center
Tue 10:38:17 PM 41.8503 -74.3717 201° Southwest 172 198 7,100 -303 Descending Boston Center
Tue 10:39:15 PM 41.8042 -74.3925 199° South 172 198 7,100  Level Boston Center
Tue 10:40:16 PM 41.7664 -74.4108 200° South 172 198 7,100  Level Boston Center
Tue 10:41:16 PM 41.7200 -74.4344 201° Southwest 172 198 7,100  Level Boston Center
Tue 10:42:17 PM 41.6800 -74.4553 201° Southwest 172 198 7,100  Level Boston Center
Tue 10:43:16 PM 41.6339 -74.4789 201° Southwest 172 198 7,100 -198 Level Boston Center
Tue 10:44:18 PM 41.5939 -74.4997 201° Southwest 172 198 6,700 -500 Descending Boston Center
Tue 10:45:16 PM 41.5433 -74.5258 201° Southwest 172 198 6,100 -300 Descending Boston Center
Tue 10:46:18 PM 41.5033 -74.5439 199° South 172 198 6,100  Level Boston Center
Tue 10:47:15 PM 41.4592 -74.5675 202° Southwest 172 198 6,100  Level Boston Center
Tue 10:48:17 PM 41.4214 -74.5883 202° Southwest 167 192 6,100  Level Boston Center
Tue 10:49:15 PM 41.3750 -74.6061 196° South 167 192 6,100  Level Boston Center
Tue 10:50:18 PM 41.3333 -74.6167 191° South 163 188 6,100  Level New York TRACON
Tue 10:51:18 PM 41.2833 -74.6333 194° South 161 185 6,100  Level New York TRACON
Tue 10:52:12 PM 41.2500 -74.6500 201° Southwest 161 185 6,100 -474 Level New York TRACON
Tue 10:53:12 PM 41.2000 -74.6500 180° South 182 209 5,200 -905 Descending New York TRACON
Tue 10:54:18 PM 41.1333 -74.6500 180° South 184 212 4,200 -850 Descending New York TRACON
Tue 10:55:12 PM 41.1000 -74.6333 159° South 184 212 3,500 -550 Descending New York TRACON
Tue 10:56:18 PM 41.0500 -74.6167 166° South 179 206 3,100 -190 Descending New York TRACON
Tue 10:57:18 PM 41.0333 -74.5500 108° East 182 209 3,100  Level New York TRACON
Tue 10:58:18 PM 41.0167 -74.4833 108° East 181 208 3,100  Level New York TRACON
Tue 10:59:18 PM 41.0167 -74.4167 90° East 180 207 3,100  Level New York TRACON
Tue 11:00:12 PM 41.0000 -74.3667 114° Southeast 182 209 3,100  Level New York TRACON
Tue 11:01:12 PM 40.9833 -74.3000 108° East 186 214 3,100  Level New York TRACON
Tue 11:02:12 PM 40.9833 -74.2333 90° East 190 219 3,100  Level New York TRACON
Tue 11:03:18 PM 40.9833 -74.1500 90° East 183 211 3,100  Level New York TRACON
Tue 11:04:18 PM 40.9667 -74.1000 114° Southeast 182 209 3,100  Level New York TRACON
Tue 11:05:18 PM 40.9167 -74.0667 153° Southeast 165 190 3,100  Level New York TRACON
Tue 11:06:18 PM 40.8667 -74.0667 180° South 162 186 3,100 -50 Level New York TRACON
Tue 11:07:18 PM 40.8333 -74.0833 201° Southwest 153 176 3,000 -550 Descending New York TRACON
Tue 11:08:18 PM 40.7833 -74.1000 194° South 152 175 2,000 -857 Descending New York TRACON
Tue 11:09:24 PM 40.7500 -74.1333 217° Southwest 150 173 1,200 -714 Descending New York TRACON
Tue 11:10:24 PM 40.7167 -74.1500 201° Southwest 128 147 500 -700 Descending New York TRACON
Tue 11:12:00 PM 40.6925 -74.1687 143° Southeast  Level Estimated
Tue 11:19:00 PM 40.6925 -74.1687 143° Southeast  Level Estimated
Tue 11:20:00 PM 40.6925 -74.1687 143° Southeast  Level Estimated

Login

Don't have an account? Register now (free) for customized features, flight alerts, and more!